sensor_id;sensor_type;location;lat;lon;timestamp;temperature;humidity
53146;DHT22;39042;53.150;5.898;2024-02-28T00:00:38;3.00;99.90
53146;DHT22;39042;53.150;5.898;2024-02-28T00:03:04;3.00;99.90
53146;DHT22;39042;53.150;5.898;2024-02-28T00:05:31;3.00;99.90
53146;DHT22;39042;53.150;5.898;2024-02-28T00:07:57;3.00;99.90
53146;DHT22;39042;53.150;5.898;2024-02-28T00:10:22;3.00;99.90
53146;DHT22;39042;53.150;5.898;2024-02-28T00:12:49;2.90;99.90
53146;DHT22;39042;53.150;5.898;2024-02-28T00:15:14;2.90;99.90
53146;DHT22;39042;53.150;5.898;2024-02-28T00:17:41;2.90;99.90
53146;DHT22;39042;53.150;5.898;2024-02-28T00:20:08;2.90;99.90
53146;DHT22;39042;53.150;5.898;2024-02-28T00:22:36;2.90;99.90
53146;DHT22;39042;53.150;5.898;2024-02-28T00:25:05;2.80;99.90
53146;DHT22;39042;53.150;5.898;2024-02-28T00:27:33;2.80;99.90
53146;DHT22;39042;53.150;5.898;2024-02-28T00:29:59;2.80;99.90
53146;DHT22;39042;53.150;5.898;2024-02-28T00:32:25;2.80;99.90
53146;DHT22;39042;53.150;5.898;2024-02-28T00:34:50;2.80;99.90
53146;DHT22;39042;53.150;5.898;2024-02-28T00:37:16;2.70;99.90
53146;DHT22;39042;53.150;5.898;2024-02-28T00:39:44;2.70;99.90
53146;DHT22;39042;53.150;5.898;2024-02-28T00:42:10;2.70;99.90
53146;DHT22;39042;53.150;5.898;2024-02-28T00:44:36;2.70;99.90
53146;DHT22;39042;53.150;5.898;2024-02-28T00:47:02;2.70;99.90
53146;DHT22;39042;53.150;5.898;2024-02-28T00:49:27;2.70;99.90
53146;DHT22;39042;53.150;5.898;2024-02-28T00:51:53;2.80;99.90
53146;DHT22;39042;53.150;5.898;2024-02-28T00:54:19;2.70;99.90
53146;DHT22;39042;53.150;5.898;2024-02-28T00:56:47;2.80;99.90
53146;DHT22;39042;53.150;5.898;2024-02-28T00:59:13;2.80;99.90
53146;DHT22;39042;53.150;5.898;2024-02-28T01:01:40;2.80;99.90
53146;DHT22;39042;53.150;5.898;2024-02-28T01:04:05;2.80;99.90
53146;DHT22;39042;53.150;5.898;2024-02-28T01:06:31;2.80;99.90
53146;DHT22;39042;53.150;5.898;2024-02-28T01:08:57;2.80;99.90
53146;DHT22;39042;53.150;5.898;2024-02-28T01:11:24;2.80;99.90
53146;DHT22;39042;53.150;5.898;2024-02-28T01:13:50;2.80;99.90
53146;DHT22;39042;53.150;5.898;2024-02-28T01:16:16;2.80;99.90
53146;DHT22;39042;53.150;5.898;2024-02-28T01:18:42;2.80;99.90
53146;DHT22;39042;53.150;5.898;2024-02-28T01:21:08;2.80;99.90
53146;DHT22;39042;53.150;5.898;2024-02-28T01:23:34;2.80;99.90
53146;DHT22;39042;53.150;5.898;2024-02-28T01:25:59;2.80;99.90
53146;DHT22;39042;53.150;5.898;2024-02-28T01:28:28;2.80;99.90
53146;DHT22;39042;53.150;5.898;2024-02-28T01:30:54;2.90;99.90
53146;DHT22;39042;53.150;5.898;2024-02-28T01:33:20;2.90;99.90
53146;DHT22;39042;53.150;5.898;2024-02-28T01:35:46;2.90;99.90
53146;DHT22;39042;53.150;5.898;2024-02-28T01:38:11;2.90;99.90
53146;DHT22;39042;53.150;5.898;2024-02-28T01:40:37;3.00;99.90
53146;DHT22;39042;53.150;5.898;2024-02-28T01:43:06;3.00;99.90
53146;DHT22;39042;53.150;5.898;2024-02-28T01:45:32;3.00;99.90
53146;DHT22;39042;53.150;5.898;2024-02-28T01:47:58;3.00;99.90
53146;DHT22;39042;53.150;5.898;2024-02-28T01:50:24;3.00;99.90
53146;DHT22;39042;53.150;5.898;2024-02-28T01:52:50;3.00;99.90
53146;DHT22;39042;53.150;5.898;2024-02-28T01:55:17;3.00;99.90
53146;DHT22;39042;53.150;5.898;2024-02-28T01:57:43;3.00;99.90
53146;DHT22;39042;53.150;5.898;2024-02-28T02:00:09;3.00;99.90
53146;DHT22;39042;53.150;5.898;2024-02-28T02:02:37;3.00;99.90
53146;DHT22;39042;53.150;5.898;2024-02-28T02:05:03;3.00;99.90
53146;DHT22;39042;53.150;5.898;2024-02-28T02:07:30;3.00;99.90
53146;DHT22;39042;53.150;5.898;2024-02-28T02:09:56;3.00;99.90
53146;DHT22;39042;53.150;5.898;2024-02-28T02:12:22;3.00;99.90
53146;DHT22;39042;53.150;5.898;2024-02-28T02:14:48;3.00;99.90
53146;DHT22;39042;53.150;5.898;2024-02-28T02:17:14;3.00;99.90
53146;DHT22;39042;53.150;5.898;2024-02-28T02:19:40;3.10;99.90
53146;DHT22;39042;53.150;5.898;2024-02-28T02:22:08;3.00;99.90
53146;DHT22;39042;53.150;5.898;2024-02-28T02:24:34;3.10;99.90
53146;DHT22;39042;53.150;5.898;2024-02-28T02:27:00;3.10;99.90
53146;DHT22;39042;53.150;5.898;2024-02-28T02:29:26;3.10;99.90
53146;DHT22;39042;53.150;5.898;2024-02-28T02:31:54;3.10;99.90
53146;DHT22;39042;53.150;5.898;2024-02-28T02:34:20;3.20;99.90
53146;DHT22;39042;53.150;5.898;2024-02-28T02:36:45;3.20;99.90
53146;DHT22;39042;53.150;5.898;2024-02-28T02:39:11;3.20;99.90
53146;DHT22;39042;53.150;5.898;2024-02-28T02:41:37;3.20;99.90
53146;DHT22;39042;53.150;5.898;2024-02-28T02:44:03;3.20;99.90
53146;DHT22;39042;53.150;5.898;2024-02-28T02:46:29;3.20;99.90
53146;DHT22;39042;53.150;5.898;2024-02-28T02:48:55;3.20;99.90
53146;DHT22;39042;53.150;5.898;2024-02-28T02:51:21;3.30;99.90
53146;DHT22;39042;53.150;5.898;2024-02-28T02:53:47;3.30;99.90
53146;DHT22;39042;53.150;5.898;2024-02-28T02:56:12;3.30;99.90
53146;DHT22;39042;53.150;5.898;2024-02-28T02:58:38;3.40;99.90
53146;DHT22;39042;53.150;5.898;2024-02-28T03:01:04;3.30;99.90
53146;DHT22;39042;53.150;5.898;2024-02-28T03:03:30;3.40;99.90
53146;DHT22;39042;53.150;5.898;2024-02-28T03:05:56;3.40;99.90
53146;DHT22;39042;53.150;5.898;2024-02-28T03:08:22;3.40;99.90
53146;DHT22;39042;53.150;5.898;2024-02-28T03:10:47;3.40;99.90
53146;DHT22;39042;53.150;5.898;2024-02-28T03:13:13;3.50;99.90
53146;DHT22;39042;53.150;5.898;2024-02-28T03:15:39;3.50;99.90
53146;DHT22;39042;53.150;5.898;2024-02-28T03:18:05;3.50;99.90
53146;DHT22;39042;53.150;5.898;2024-02-28T03:20:31;3.50;99.90
53146;DHT22;39042;53.150;5.898;2024-02-28T03:22:56;3.60;99.90
53146;DHT22;39042;53.150;5.898;2024-02-28T03:25:22;3.60;99.90
53146;DHT22;39042;53.150;5.898;2024-02-28T03:27:48;3.60;99.90
53146;DHT22;39042;53.150;5.898;2024-02-28T03:30:14;3.60;99.90
53146;DHT22;39042;53.150;5.898;2024-02-28T03:42:55;3.70;99.90
53146;DHT22;39042;53.150;5.898;2024-02-28T03:49:49;3.70;99.90
53146;DHT22;39042;53.150;5.898;2024-02-28T03:52:39;3.70;99.90
53146;DHT22;39042;53.150;5.898;2024-02-28T03:55:05;3.70;99.90
53146;DHT22;39042;53.150;5.898;2024-02-28T03:57:30;3.70;99.90
53146;DHT22;39042;53.150;5.898;2024-02-28T03:59:56;3.70;99.90
53146;DHT22;39042;53.150;5.898;2024-02-28T04:02:22;3.80;99.90
53146;DHT22;39042;53.150;5.898;2024-02-28T04:04:48;3.70;99.90
53146;DHT22;39042;53.150;5.898;2024-02-28T04:07:14;3.80;99.90
53146;DHT22;39042;53.150;5.898;2024-02-28T04:09:39;3.80;99.90
53146;DHT22;39042;53.150;5.898;2024-02-28T04:12:05;3.80;99.90
53146;DHT22;39042;53.150;5.898;2024-02-28T04:14:31;3.80;99.90
53146;DHT22;39042;53.150;5.898;2024-02-28T04:16:57;3.80;99.90
53146;DHT22;39042;53.150;5.898;2024-02-28T04:19:23;3.90;99.90
53146;DHT22;39042;53.150;5.898;2024-02-28T04:21:49;3.90;99.90
53146;DHT22;39042;53.150;5.898;2024-02-28T04:24:14;3.90;99.90
53146;DHT22;39042;53.150;5.898;2024-02-28T04:26:40;3.90;99.90
53146;DHT22;39042;53.150;5.898;2024-02-28T04:29:06;3.90;99.90
53146;DHT22;39042;53.150;5.898;2024-02-28T04:31:40;4.00;99.90
53146;DHT22;39042;53.150;5.898;2024-02-28T04:34:06;4.00;99.90
53146;DHT22;39042;53.150;5.898;2024-02-28T04:36:32;4.00;99.90
53146;DHT22;39042;53.150;5.898;2024-02-28T04:38:58;4.00;99.90
53146;DHT22;39042;53.150;5.898;2024-02-28T04:41:23;4.00;99.90
53146;DHT22;39042;53.150;5.898;2024-02-28T04:43:49;4.00;99.90
53146;DHT22;39042;53.150;5.898;2024-02-28T04:46:15;4.10;99.90
53146;DHT22;39042;53.150;5.898;2024-02-28T04:48:41;4.10;99.90
53146;DHT22;39042;53.150;5.898;2024-02-28T04:51:07;4.10;99.90
53146;DHT22;39042;53.150;5.898;2024-02-28T04:53:33;4.10;99.90
53146;DHT22;39042;53.150;5.898;2024-02-28T04:55:59;4.10;99.90
53146;DHT22;39042;53.150;5.898;2024-02-28T04:58:25;4.10;99.90
53146;DHT22;39042;53.150;5.898;2024-02-28T05:00:51;4.20;99.90
53146;DHT22;39042;53.150;5.898;2024-02-28T05:03:18;4.20;99.90
53146;DHT22;39042;53.150;5.898;2024-02-28T05:05:43;4.20;99.90
53146;DHT22;39042;53.150;5.898;2024-02-28T05:08:09;4.20;99.90
53146;DHT22;39042;53.150;5.898;2024-02-28T05:10:35;4.20;99.90
53146;DHT22;39042;53.150;5.898;2024-02-28T05:13:01;4.30;99.90
53146;DHT22;39042;53.150;5.898;2024-02-28T05:15:28;4.20;99.90
53146;DHT22;39042;53.150;5.898;2024-02-28T05:17:54;4.30;99.90
53146;DHT22;39042;53.150;5.898;2024-02-28T05:20:20;4.30;99.90
53146;DHT22;39042;53.150;5.898;2024-02-28T05:22:46;4.30;99.90
53146;DHT22;39042;53.150;5.898;2024-02-28T05:25:12;4.30;99.90
53146;DHT22;39042;53.150;5.898;2024-02-28T05:27:38;4.30;99.90
53146;DHT22;39042;53.150;5.898;2024-02-28T05:30:04;4.40;99.90
53146;DHT22;39042;53.150;5.898;2024-02-28T05:32:32;4.40;99.90
53146;DHT22;39042;53.150;5.898;2024-02-28T05:34:58;4.40;99.90
53146;DHT22;39042;53.150;5.898;2024-02-28T05:37:24;4.40;99.90
53146;DHT22;39042;53.150;5.898;2024-02-28T05:39:50;4.50;99.90
53146;DHT22;39042;53.150;5.898;2024-02-28T05:42:16;4.50;99.90
53146;DHT22;39042;53.150;5.898;2024-02-28T05:44:50;4.50;99.90
53146;DHT22;39042;53.150;5.898;2024-02-28T05:47:16;4.50;99.90
53146;DHT22;39042;53.150;5.898;2024-02-28T05:49:42;4.50;99.90
53146;DHT22;39042;53.150;5.898;2024-02-28T05:52:09;4.50;99.90
53146;DHT22;39042;53.150;5.898;2024-02-28T05:54:34;4.60;99.90
53146;DHT22;39042;53.150;5.898;2024-02-28T05:57:00;4.60;99.90
53146;DHT22;39042;53.150;5.898;2024-02-28T05:59:26;4.60;99.90
53146;DHT22;39042;53.150;5.898;2024-02-28T06:01:52;4.60;99.90
53146;DHT22;39042;53.150;5.898;2024-02-28T06:04:18;4.60;99.90
53146;DHT22;39042;53.150;5.898;2024-02-28T06:06:44;4.60;99.90
53146;DHT22;39042;53.150;5.898;2024-02-28T06:09:10;4.70;99.90
53146;DHT22;39042;53.150;5.898;2024-02-28T06:11:36;4.70;99.90
53146;DHT22;39042;53.150;5.898;2024-02-28T06:14:02;4.70;99.90
53146;DHT22;39042;53.150;5.898;2024-02-28T06:16:30;4.70;99.90
53146;DHT22;39042;53.150;5.898;2024-02-28T06:18:56;4.70;99.90
53146;DHT22;39042;53.150;5.898;2024-02-28T06:21:22;4.70;99.90
53146;DHT22;39042;53.150;5.898;2024-02-28T06:23:48;4.80;99.90
53146;DHT22;39042;53.150;5.898;2024-02-28T06:26:14;4.80;99.90
53146;DHT22;39042;53.150;5.898;2024-02-28T06:28:43;4.80;99.90
53146;DHT22;39042;53.150;5.898;2024-02-28T06:31:17;4.80;99.90
53146;DHT22;39042;53.150;5.898;2024-02-28T06:33:46;4.80;99.90
53146;DHT22;39042;53.150;5.898;2024-02-28T06:36:12;4.80;99.90
53146;DHT22;39042;53.150;5.898;2024-02-28T06:38:38;4.80;99.90
53146;DHT22;39042;53.150;5.898;2024-02-28T06:41:04;4.80;99.90
53146;DHT22;39042;53.150;5.898;2024-02-28T06:43:34;4.80;99.90
53146;DHT22;39042;53.150;5.898;2024-02-28T06:46:01;4.90;99.90
53146;DHT22;39042;53.150;5.898;2024-02-28T06:48:28;4.80;99.90
53146;DHT22;39042;53.150;5.898;2024-02-28T06:50:54;4.90;99.90
53146;DHT22;39042;53.150;5.898;2024-02-28T06:53:20;4.90;99.90
53146;DHT22;39042;53.150;5.898;2024-02-28T06:55:46;4.90;99.90
53146;DHT22;39042;53.150;5.898;2024-02-28T06:58:14;4.90;99.90
53146;DHT22;39042;53.150;5.898;2024-02-28T07:00:40;4.90;99.90
53146;DHT22;39042;53.150;5.898;2024-02-28T07:03:06;4.90;99.90
53146;DHT22;39042;53.150;5.898;2024-02-28T07:05:33;4.90;99.90
53146;DHT22;39042;53.150;5.898;2024-02-28T07:08:00;4.90;99.90
53146;DHT22;39042;53.150;5.898;2024-02-28T07:10:26;4.90;99.90
53146;DHT22;39042;53.150;5.898;2024-02-28T07:12:51;4.90;99.90
53146;DHT22;39042;53.150;5.898;2024-02-28T07:15:17;4.90;99.90
53146;DHT22;39042;53.150;5.898;2024-02-28T07:17:46;4.90;99.90
53146;DHT22;39042;53.150;5.898;2024-02-28T07:20:12;4.90;99.90
53146;DHT22;39042;53.150;5.898;2024-02-28T07:22:38;5.00;99.90
53146;DHT22;39042;53.150;5.898;2024-02-28T07:25:05;5.00;99.90
53146;DHT22;39042;53.150;5.898;2024-02-28T07:27:31;5.00;99.90
53146;DHT22;39042;53.150;5.898;2024-02-28T07:29:57;5.00;99.90
53146;DHT22;39042;53.150;5.898;2024-02-28T07:32:22;5.10;99.90
53146;DHT22;39042;53.150;5.898;2024-02-28T07:34:48;5.10;99.90
53146;DHT22;39042;53.150;5.898;2024-02-28T07:37:14;5.20;99.90
53146;DHT22;39042;53.150;5.898;2024-02-28T07:39:40;5.20;99.90
53146;DHT22;39042;53.150;5.898;2024-02-28T07:42:06;5.20;99.90
53146;DHT22;39042;53.150;5.898;2024-02-28T07:44:32;5.20;99.90
53146;DHT22;39042;53.150;5.898;2024-02-28T07:46:58;5.20;99.90
53146;DHT22;39042;53.150;5.898;2024-02-28T07:49:25;5.20;99.90
53146;DHT22;39042;53.150;5.898;2024-02-28T07:51:51;5.20;99.90
53146;DHT22;39042;53.150;5.898;2024-02-28T07:54:17;5.20;99.90
53146;DHT22;39042;53.150;5.898;2024-02-28T07:56:43;5.20;99.90
53146;DHT22;39042;53.150;5.898;2024-02-28T07:59:09;5.20;99.90
53146;DHT22;39042;53.150;5.898;2024-02-28T08:01:35;5.30;99.90
53146;DHT22;39042;53.150;5.898;2024-02-28T08:04:04;5.40;99.90
53146;DHT22;39042;53.150;5.898;2024-02-28T08:06:30;5.50;99.90
53146;DHT22;39042;53.150;5.898;2024-02-28T08:08:56;5.60;99.90
53146;DHT22;39042;53.150;5.898;2024-02-28T08:11:22;5.70;99.90
53146;DHT22;39042;53.150;5.898;2024-02-28T08:13:48;5.70;99.90
53146;DHT22;39042;53.150;5.898;2024-02-28T08:16:14;5.70;99.90
53146;DHT22;39042;53.150;5.898;2024-02-28T08:18:40;5.70;99.90
53146;DHT22;39042;53.150;5.898;2024-02-28T08:21:06;5.90;99.90
53146;DHT22;39042;53.150;5.898;2024-02-28T08:23:32;5.90;99.90
53146;DHT22;39042;53.150;5.898;2024-02-28T08:25:58;6.00;99.90
53146;DHT22;39042;53.150;5.898;2024-02-28T08:28:23;6.10;99.90
53146;DHT22;39042;53.150;5.898;2024-02-28T08:30:50;6.20;99.90
53146;DHT22;39042;53.150;5.898;2024-02-28T08:33:16;6.30;99.90
53146;DHT22;39042;53.150;5.898;2024-02-28T08:35:42;6.40;99.90
53146;DHT22;39042;53.150;5.898;2024-02-28T08:38:08;6.50;99.90
53146;DHT22;39042;53.150;5.898;2024-02-28T08:40:34;6.60;99.90
53146;DHT22;39042;53.150;5.898;2024-02-28T08:43:00;6.60;99.90
53146;DHT22;39042;53.150;5.898;2024-02-28T08:45:26;6.70;99.90
53146;DHT22;39042;53.150;5.898;2024-02-28T08:47:52;6.80;99.90
53146;DHT22;39042;53.150;5.898;2024-02-28T08:50:18;6.80;99.90
53146;DHT22;39042;53.150;5.898;2024-02-28T08:52:44;6.90;99.90
53146;DHT22;39042;53.150;5.898;2024-02-28T08:55:10;7.00;99.90
53146;DHT22;39042;53.150;5.898;2024-02-28T08:57:36;7.00;99.90
53146;DHT22;39042;53.150;5.898;2024-02-28T09:00:02;7.10;99.90
53146;DHT22;39042;53.150;5.898;2024-02-28T09:02:28;7.10;99.90
53146;DHT22;39042;53.150;5.898;2024-02-28T09:04:53;7.20;99.90
53146;DHT22;39042;53.150;5.898;2024-02-28T09:07:22;7.20;99.90
53146;DHT22;39042;53.150;5.898;2024-02-28T09:09:48;7.20;99.90
53146;DHT22;39042;53.150;5.898;2024-02-28T09:12:15;7.30;99.90
53146;DHT22;39042;53.150;5.898;2024-02-28T09:14:40;7.30;99.90
53146;DHT22;39042;53.150;5.898;2024-02-28T09:17:06;7.30;99.90
53146;DHT22;39042;53.150;5.898;2024-02-28T09:19:32;7.40;99.90
53146;DHT22;39042;53.150;5.898;2024-02-28T09:21:58;7.40;99.90
53146;DHT22;39042;53.150;5.898;2024-02-28T09:24:25;7.40;99.90
53146;DHT22;39042;53.150;5.898;2024-02-28T09:26:51;7.40;99.90
53146;DHT22;39042;53.150;5.898;2024-02-28T09:29:17;7.40;99.90
53146;DHT22;39042;53.150;5.898;2024-02-28T09:31:43;7.40;99.90
53146;DHT22;39042;53.150;5.898;2024-02-28T09:34:08;7.40;99.90
53146;DHT22;39042;53.150;5.898;2024-02-28T09:36:42;7.40;99.90
53146;DHT22;39042;53.150;5.898;2024-02-28T09:39:08;7.40;99.90
53146;DHT22;39042;53.150;5.898;2024-02-28T09:41:34;7.40;99.90
53146;DHT22;39042;53.150;5.898;2024-02-28T09:44:03;7.50;99.90
53146;DHT22;39042;53.150;5.898;2024-02-28T09:46:33;7.50;99.90
53146;DHT22;39042;53.150;5.898;2024-02-28T09:49:05;7.50;99.90
53146;DHT22;39042;53.150;5.898;2024-02-28T09:51:35;7.60;99.90
53146;DHT22;39042;53.150;5.898;2024-02-28T09:54:05;7.60;99.90
53146;DHT22;39042;53.150;5.898;2024-02-28T09:56:33;7.70;99.90
53146;DHT22;39042;53.150;5.898;2024-02-28T09:59:01;7.70;99.90
53146;DHT22;39042;53.150;5.898;2024-02-28T10:01:30;7.80;99.90
53146;DHT22;39042;53.150;5.898;2024-02-28T10:03:59;7.80;99.90
53146;DHT22;39042;53.150;5.898;2024-02-28T10:06:26;7.80;99.90
53146;DHT22;39042;53.150;5.898;2024-02-28T10:08:52;7.80;99.90
53146;DHT22;39042;53.150;5.898;2024-02-28T10:11:22;7.90;99.90
53146;DHT22;39042;53.150;5.898;2024-02-28T10:13:48;8.10;99.90
53146;DHT22;39042;53.150;5.898;2024-02-28T10:16:14;8.10;99.90
53146;DHT22;39042;53.150;5.898;2024-02-28T10:18:44;8.20;99.90
53146;DHT22;39042;53.150;5.898;2024-02-28T10:21:13;8.30;99.90
53146;DHT22;39042;53.150;5.898;2024-02-28T10:23:41;8.30;99.90
53146;DHT22;39042;53.150;5.898;2024-02-28T10:26:11;8.40;99.90
53146;DHT22;39042;53.150;5.898;2024-02-28T10:28:40;8.50;99.90
53146;DHT22;39042;53.150;5.898;2024-02-28T10:31:08;8.60;99.90
53146;DHT22;39042;53.150;5.898;2024-02-28T10:33:37;8.70;99.90
53146;DHT22;39042;53.150;5.898;2024-02-28T10:36:06;8.70;99.90
53146;DHT22;39042;53.150;5.898;2024-02-28T10:38:35;8.80;99.90
53146;DHT22;39042;53.150;5.898;2024-02-28T10:41:03;8.90;99.90
53146;DHT22;39042;53.150;5.898;2024-02-28T10:43:30;9.00;99.90
53146;DHT22;39042;53.150;5.898;2024-02-28T10:46:01;9.10;99.90
53146;DHT22;39042;53.150;5.898;2024-02-28T10:48:27;9.10;99.90
53146;DHT22;39042;53.150;5.898;2024-02-28T10:50:53;9.10;99.90
53146;DHT22;39042;53.150;5.898;2024-02-28T10:53:36;9.10;99.90
53146;DHT22;39042;53.150;5.898;2024-02-28T10:56:03;9.20;99.90
53146;DHT22;39042;53.150;5.898;2024-02-28T10:58:35;9.20;99.90
53146;DHT22;39042;53.150;5.898;2024-02-28T11:01:05;9.20;99.90
53146;DHT22;39042;53.150;5.898;2024-02-28T11:03:31;9.30;99.90
53146;DHT22;39042;53.150;5.898;2024-02-28T11:05:57;9.30;99.90
53146;DHT22;39042;53.150;5.898;2024-02-28T11:08:27;9.40;99.90
53146;DHT22;39042;53.150;5.898;2024-02-28T11:11:03;9.40;99.90
53146;DHT22;39042;53.150;5.898;2024-02-28T11:13:33;9.30;99.90
53146;DHT22;39042;53.150;5.898;2024-02-28T11:16:09;9.40;99.90
53146;DHT22;39042;53.150;5.898;2024-02-28T11:18:48;9.40;99.90
53146;DHT22;39042;53.150;5.898;2024-02-28T11:21:17;9.40;99.90
53146;DHT22;39042;53.150;5.898;2024-02-28T11:23:46;9.40;99.90
53146;DHT22;39042;53.150;5.898;2024-02-28T11:26:13;9.40;99.90
53146;DHT22;39042;53.150;5.898;2024-02-28T11:28:39;9.40;99.90
53146;DHT22;39042;53.150;5.898;2024-02-28T11:31:05;9.40;99.90
53146;DHT22;39042;53.150;5.898;2024-02-28T11:33:31;9.40;99.90
53146;DHT22;39042;53.150;5.898;2024-02-28T11:35:59;9.30;99.90
53146;DHT22;39042;53.150;5.898;2024-02-28T11:38:25;9.30;99.90
53146;DHT22;39042;53.150;5.898;2024-02-28T11:40:52;9.40;99.90
53146;DHT22;39042;53.150;5.898;2024-02-28T11:43:21;9.40;99.90
53146;DHT22;39042;53.150;5.898;2024-02-28T11:45:47;9.40;99.90
53146;DHT22;39042;53.150;5.898;2024-02-28T11:48:16;9.40;99.90
53146;DHT22;39042;53.150;5.898;2024-02-28T11:50:42;9.40;99.90
53146;DHT22;39042;53.150;5.898;2024-02-28T11:53:16;9.30;99.90
53146;DHT22;39042;53.150;5.898;2024-02-28T11:56:10;9.30;99.90
53146;DHT22;39042;53.150;5.898;2024-02-28T11:58:51;9.30;99.90
53146;DHT22;39042;53.150;5.898;2024-02-28T12:01:58;9.30;99.90
53146;DHT22;39042;53.150;5.898;2024-02-28T12:05:39;9.30;99.90
53146;DHT22;39042;53.150;5.898;2024-02-28T12:08:55;9.20;99.90
53146;DHT22;39042;53.150;5.898;2024-02-28T12:16:26;9.20;99.90
53146;DHT22;39042;53.150;5.898;2024-02-28T12:26:49;9.20;99.90
53146;DHT22;39042;53.150;5.898;2024-02-28T12:40:08;9.10;99.90
53146;DHT22;39042;53.150;5.898;2024-02-28T12:53:53;9.40;99.90
53146;DHT22;39042;53.150;5.898;2024-02-28T13:07:04;9.60;99.90
53146;DHT22;39042;53.150;5.898;2024-02-28T13:10:34;9.60;99.90
53146;DHT22;39042;53.150;5.898;2024-02-28T13:20:57;9.80;99.90
53146;DHT22;39042;53.150;5.898;2024-02-28T13:31:44;10.10;99.90
53146;DHT22;39042;53.150;5.898;2024-02-28T13:38:19;10.20;99.90
53146;DHT22;39042;53.150;5.898;2024-02-28T13:41:41;10.20;99.90
53146;DHT22;39042;53.150;5.898;2024-02-28T13:48:40;10.30;99.90
53146;DHT22;39042;53.150;5.898;2024-02-28T13:54:58;10.20;99.90
53146;DHT22;39042;53.150;5.898;2024-02-28T13:57:47;10.20;99.90
53146;DHT22;39042;53.150;5.898;2024-02-28T14:01:10;10.10;99.90
53146;DHT22;39042;53.150;5.898;2024-02-28T14:04:45;10.10;99.90
53146;DHT22;39042;53.150;5.898;2024-02-28T14:07:42;10.00;99.90
53146;DHT22;39042;53.150;5.898;2024-02-28T14:18:02;10.00;99.90
53146;DHT22;39042;53.150;5.898;2024-02-28T14:21:20;10.00;99.90
53146;DHT22;39042;53.150;5.898;2024-02-28T14:24:51;10.10;99.90
53146;DHT22;39042;53.150;5.898;2024-02-28T14:28:05;10.10;99.90
53146;DHT22;39042;53.150;5.898;2024-02-28T14:31:10;10.10;99.90
53146;DHT22;39042;53.150;5.898;2024-02-28T14:33:36;10.10;99.90
53146;DHT22;39042;53.150;5.898;2024-02-28T14:36:02;10.10;99.90
53146;DHT22;39042;53.150;5.898;2024-02-28T14:38:31;10.20;99.90
53146;DHT22;39042;53.150;5.898;2024-02-28T14:40:57;10.20;99.90
53146;DHT22;39042;53.150;5.898;2024-02-28T14:43:23;10.30;99.90
53146;DHT22;39042;53.150;5.898;2024-02-28T14:45:49;10.30;99.90
53146;DHT22;39042;53.150;5.898;2024-02-28T14:48:15;10.40;99.90
53146;DHT22;39042;53.150;5.898;2024-02-28T14:50:41;10.30;99.90
53146;DHT22;39042;53.150;5.898;2024-02-28T14:53:08;10.30;99.90
53146;DHT22;39042;53.150;5.898;2024-02-28T14:55:34;10.30;99.90
53146;DHT22;39042;53.150;5.898;2024-02-28T14:57:59;10.30;99.90
53146;DHT22;39042;53.150;5.898;2024-02-28T15:00:27;10.20;99.90
53146;DHT22;39042;53.150;5.898;2024-02-28T15:02:53;10.20;99.90
53146;DHT22;39042;53.150;5.898;2024-02-28T15:05:20;10.20;99.90
53146;DHT22;39042;53.150;5.898;2024-02-28T15:07:46;10.20;99.90
53146;DHT22;39042;53.150;5.898;2024-02-28T15:10:12;10.10;99.90
53146;DHT22;39042;53.150;5.898;2024-02-28T15:12:39;10.10;99.90
53146;DHT22;39042;53.150;5.898;2024-02-28T15:15:06;10.10;99.90
53146;DHT22;39042;53.150;5.898;2024-02-28T15:17:33;10.10;99.90
53146;DHT22;39042;53.150;5.898;2024-02-28T15:24:07;10.00;99.90
53146;DHT22;39042;53.150;5.898;2024-02-28T15:26:33;9.90;99.90
53146;DHT22;39042;53.150;5.898;2024-02-28T15:28:59;9.90;99.90
53146;DHT22;39042;53.150;5.898;2024-02-28T15:31:25;9.90;99.90
53146;DHT22;39042;53.150;5.898;2024-02-28T15:33:53;9.90;99.90
53146;DHT22;39042;53.150;5.898;2024-02-28T15:36:26;9.90;99.90
53146;DHT22;39042;53.150;5.898;2024-02-28T15:38:52;9.90;99.90
53146;DHT22;39042;53.150;5.898;2024-02-28T15:41:18;9.90;99.90
53146;DHT22;39042;53.150;5.898;2024-02-28T15:43:44;9.90;99.90
53146;DHT22;39042;53.150;5.898;2024-02-28T16:02:48;9.60;99.90
53146;DHT22;39042;53.150;5.898;2024-02-28T16:05:16;9.60;99.90
53146;DHT22;39042;53.150;5.898;2024-02-28T16:07:43;9.60;99.90
53146;DHT22;39042;53.150;5.898;2024-02-28T16:10:12;9.60;99.90
53146;DHT22;39042;53.150;5.898;2024-02-28T16:12:38;9.60;99.90
53146;DHT22;39042;53.150;5.898;2024-02-28T16:15:04;9.50;99.90
53146;DHT22;39042;53.150;5.898;2024-02-28T16:17:33;9.50;99.90
53146;DHT22;39042;53.150;5.898;2024-02-28T16:20:01;9.40;99.90
53146;DHT22;39042;53.150;5.898;2024-02-28T16:22:28;9.40;99.90
53146;DHT22;39042;53.150;5.898;2024-02-28T16:24:54;9.40;99.90
53146;DHT22;39042;53.150;5.898;2024-02-28T16:27:20;9.30;99.90
53146;DHT22;39042;53.150;5.898;2024-02-28T16:29:45;9.30;99.90
53146;DHT22;39042;53.150;5.898;2024-02-28T16:32:19;9.20;99.90
53146;DHT22;39042;53.150;5.898;2024-02-28T16:34:45;9.20;99.90
53146;DHT22;39042;53.150;5.898;2024-02-28T16:37:11;9.10;99.90
53146;DHT22;39042;53.150;5.898;2024-02-28T16:39:39;9.10;99.90
53146;DHT22;39042;53.150;5.898;2024-02-28T16:42:05;9.00;99.90
53146;DHT22;39042;53.150;5.898;2024-02-28T16:44:31;9.00;99.90
53146;DHT22;39042;53.150;5.898;2024-02-28T16:46:59;9.00;99.90
53146;DHT22;39042;53.150;5.898;2024-02-28T16:49:30;8.90;99.90
53146;DHT22;39042;53.150;5.898;2024-02-28T16:51:56;8.90;99.90
53146;DHT22;39042;53.150;5.898;2024-02-28T16:54:21;8.80;99.90
53146;DHT22;39042;53.150;5.898;2024-02-28T16:56:52;8.80;99.90
53146;DHT22;39042;53.150;5.898;2024-02-28T16:59:21;8.70;99.90
53146;DHT22;39042;53.150;5.898;2024-02-28T17:01:47;8.70;99.90
53146;DHT22;39042;53.150;5.898;2024-02-28T17:04:16;8.60;99.90
53146;DHT22;39042;53.150;5.898;2024-02-28T17:06:50;8.60;99.90
53146;DHT22;39042;53.150;5.898;2024-02-28T17:09:20;8.60;99.90
53146;DHT22;39042;53.150;5.898;2024-02-28T17:11:46;8.50;99.90
53146;DHT22;39042;53.150;5.898;2024-02-28T17:14:15;8.50;99.90
53146;DHT22;39042;53.150;5.898;2024-02-28T17:16:48;8.50;99.90
53146;DHT22;39042;53.150;5.898;2024-02-28T17:19:17;8.40;99.90
53146;DHT22;39042;53.150;5.898;2024-02-28T17:21:45;8.40;99.90
53146;DHT22;39042;53.150;5.898;2024-02-28T17:24:11;8.40;99.90
53146;DHT22;39042;53.150;5.898;2024-02-28T17:26:37;8.30;99.90
53146;DHT22;39042;53.150;5.898;2024-02-28T17:29:03;8.30;99.90
53146;DHT22;39042;53.150;5.898;2024-02-28T17:31:28;8.30;99.90
53146;DHT22;39042;53.150;5.898;2024-02-28T17:33:54;8.20;99.90
53146;DHT22;39042;53.150;5.898;2024-02-28T17:36:20;8.20;99.90
53146;DHT22;39042;53.150;5.898;2024-02-28T17:38:46;8.20;99.90
53146;DHT22;39042;53.150;5.898;2024-02-28T17:41:12;8.20;99.90
53146;DHT22;39042;53.150;5.898;2024-02-28T17:43:38;8.20;99.90
53146;DHT22;39042;53.150;5.898;2024-02-28T17:46:07;8.10;99.90
53146;DHT22;39042;53.150;5.898;2024-02-28T17:48:35;8.10;99.90
53146;DHT22;39042;53.150;5.898;2024-02-28T17:51:03;8.10;99.90